Terminal Aerodrome Forecast
Issued by NWS Albany, NY

Current Version | Previous Version | Text Only | Print | Product List | Glossary On
Versions: 1 2 3 4 5 6 7 8 9 10 11 12 13 14 15 16 17 18 19
000
FTUS41 KALY 250625 AAA
TAFGFL
TAF AMD
KGFL 250625Z 2506/2606 VRB04KT 6SM BR VCSH OVC025
     FM250800 04004KT 6SM BR VCSH OVC020
     FM251200 VRB03KT P6SM VCSH OVC015
     FM251800 03004KT P6SM SCT025 OVC050
     FM260200 00000KT 6SM BR SCT050=

USA.gov is the U.S. government's official web portal to all federal, state and local government web resources and services.